Search for airport 
image banner adimage banner adimage banner ad
image banner ad

IA54 - Anderson

Located in Dubuque, United States

ICAO - IA54, IATA -

Data provided by Airmate  

General information

Coordinates: N42°30'8" W90°50'35"
Elevation is 1135 feet MSL.
Magnetic variation is 00° East
View others Airports in Iowa

Operational data

Special qualification required
Current time UTC:
Current local time:
Weather at : KDBQ - Dubuque Rgnl ( 16 km )
METAR: KDBQ 150753Z AUTO 00000KT 10SM CLR 14/11 A3008 RMK AO2 SLP179 T01440106
TAF: KDBQ 150530Z 1506/1606 VRB03KT P6SM SKC FM151800 02008KT P6SM FEW200 FM160300 07004KT P6SM SKC
View NOTAMs / SUP AIP / TFR affecting this airport [VIEW]
Communications frequencies: [VIEW]

Runways:

RWY identifierQFULength (ft)Width (ft)SurfaceLDA (ft)
102000100GRASS
282000100GRASS

Airport contact information

Address: Dubuque United States

Satellite view of IA54